sensor_id;sensor_type;location;lat;lon;timestamp;temperature;humidity
7214;DHT22;3648;50.614;13.830;2023-05-20T00:00:26;12.20;99.90
7214;DHT22;3648;50.614;13.830;2023-05-20T00:02:53;12.20;99.90
7214;DHT22;3648;50.614;13.830;2023-05-20T00:05:22;12.20;99.90
7214;DHT22;3648;50.614;13.830;2023-05-20T00:07:49;12.20;99.90
7214;DHT22;3648;50.614;13.830;2023-05-20T00:10:16;12.20;99.90
7214;DHT22;3648;50.614;13.830;2023-05-20T00:12:43;12.20;99.90
7214;DHT22;3648;50.614;13.830;2023-05-20T00:15:11;12.20;99.90
7214;DHT22;3648;50.614;13.830;2023-05-20T00:17:38;12.10;99.90
7214;DHT22;3648;50.614;13.830;2023-05-20T00:20:06;12.10;99.90
7214;DHT22;3648;50.614;13.830;2023-05-20T00:22:33;12.10;99.90
7214;DHT22;3648;50.614;13.830;2023-05-20T00:25:00;12.10;99.90
7214;DHT22;3648;50.614;13.830;2023-05-20T00:27:27;12.10;99.90
7214;DHT22;3648;50.614;13.830;2023-05-20T00:29:54;12.20;99.90
7214;DHT22;3648;50.614;13.830;2023-05-20T00:32:23;12.10;99.90
7214;DHT22;3648;50.614;13.830;2023-05-20T00:34:57;12.20;99.90
7214;DHT22;3648;50.614;13.830;2023-05-20T00:37:24;12.10;99.90
7214;DHT22;3648;50.614;13.830;2023-05-20T00:39:51;12.10;99.90
7214;DHT22;3648;50.614;13.830;2023-05-20T00:42:19;12.10;99.90
7214;DHT22;3648;50.614;13.830;2023-05-20T00:44:47;12.10;99.90
7214;DHT22;3648;50.614;13.830;2023-05-20T00:47:14;12.10;99.90
7214;DHT22;3648;50.614;13.830;2023-05-20T00:49:43;12.10;99.90
7214;DHT22;3648;50.614;13.830;2023-05-20T00:52:11;12.00;99.90
7214;DHT22;3648;50.614;13.830;2023-05-20T00:54:39;12.00;99.90
7214;DHT22;3648;50.614;13.830;2023-05-20T00:57:07;11.90;99.90
7214;DHT22;3648;50.614;13.830;2023-05-20T00:59:35;11.80;99.90
7214;DHT22;3648;50.614;13.830;2023-05-20T01:02:03;11.80;99.90
7214;DHT22;3648;50.614;13.830;2023-05-20T01:04:30;11.70;99.90
7214;DHT22;3648;50.614;13.830;2023-05-20T01:07:01;11.70;99.90
7214;DHT22;3648;50.614;13.830;2023-05-20T01:09:29;11.60;99.90
7214;DHT22;3648;50.614;13.830;2023-05-20T01:12:00;11.50;99.90
7214;DHT22;3648;50.614;13.830;2023-05-20T01:14:31;11.50;99.90
7214;DHT22;3648;50.614;13.830;2023-05-20T01:17:02;11.40;99.90
7214;DHT22;3648;50.614;13.830;2023-05-20T01:19:37;11.40;99.90
7214;DHT22;3648;50.614;13.830;2023-05-20T01:22:06;11.40;99.90
7214;DHT22;3648;50.614;13.830;2023-05-20T01:24:39;11.30;99.90
7214;DHT22;3648;50.614;13.830;2023-05-20T01:27:07;11.30;99.90
7214;DHT22;3648;50.614;13.830;2023-05-20T01:29:35;11.20;99.90
7214;DHT22;3648;50.614;13.830;2023-05-20T01:32:05;11.20;99.90
7214;DHT22;3648;50.614;13.830;2023-05-20T01:34:34;11.10;99.90
7214;DHT22;3648;50.614;13.830;2023-05-20T01:37:03;11.10;99.90
7214;DHT22;3648;50.614;13.830;2023-05-20T01:39:33;11.10;99.90
7214;DHT22;3648;50.614;13.830;2023-05-20T01:42:04;11.00;99.90
7214;DHT22;3648;50.614;13.830;2023-05-20T01:44:31;11.00;99.90
7214;DHT22;3648;50.614;13.830;2023-05-20T01:46:59;11.00;99.90
7214;DHT22;3648;50.614;13.830;2023-05-20T01:49:26;10.90;99.90
7214;DHT22;3648;50.614;13.830;2023-05-20T01:51:53;10.90;99.90
7214;DHT22;3648;50.614;13.830;2023-05-20T01:54:20;10.80;99.90
7214;DHT22;3648;50.614;13.830;2023-05-20T01:56:47;10.80;99.90
7214;DHT22;3648;50.614;13.830;2023-05-20T01:59:15;10.80;99.90
7214;DHT22;3648;50.614;13.830;2023-05-20T02:01:42;10.80;99.90
7214;DHT22;3648;50.614;13.830;2023-05-20T02:04:10;10.80;99.90
7214;DHT22;3648;50.614;13.830;2023-05-20T02:06:37;10.80;99.90
7214;DHT22;3648;50.614;13.830;2023-05-20T02:09:04;10.80;99.90
7214;DHT22;3648;50.614;13.830;2023-05-20T02:11:31;10.80;99.90
7214;DHT22;3648;50.614;13.830;2023-05-20T02:13:58;10.80;99.90
7214;DHT22;3648;50.614;13.830;2023-05-20T02:16:26;10.80;99.90
7214;DHT22;3648;50.614;13.830;2023-05-20T02:18:53;10.70;99.90
7214;DHT22;3648;50.614;13.830;2023-05-20T02:21:20;10.70;99.90
7214;DHT22;3648;50.614;13.830;2023-05-20T02:23:47;10.60;99.90
7214;DHT22;3648;50.614;13.830;2023-05-20T02:26:14;10.60;99.90
7214;DHT22;3648;50.614;13.830;2023-05-20T02:28:41;10.60;99.90
7214;DHT22;3648;50.614;13.830;2023-05-20T02:31:11;10.50;99.90
7214;DHT22;3648;50.614;13.830;2023-05-20T02:33:39;10.50;99.90
7214;DHT22;3648;50.614;13.830;2023-05-20T02:36:07;10.50;99.90
7214;DHT22;3648;50.614;13.830;2023-05-20T02:38:34;10.50;99.90
7214;DHT22;3648;50.614;13.830;2023-05-20T02:41:01;10.50;99.90
7214;DHT22;3648;50.614;13.830;2023-05-20T02:43:29;10.50;99.90
7214;DHT22;3648;50.614;13.830;2023-05-20T02:45:56;10.50;99.90
7214;DHT22;3648;50.614;13.830;2023-05-20T02:48:23;10.50;99.90
7214;DHT22;3648;50.614;13.830;2023-05-20T02:50:52;10.50;99.90
7214;DHT22;3648;50.614;13.830;2023-05-20T02:53:19;10.50;99.90
7214;DHT22;3648;50.614;13.830;2023-05-20T02:55:46;10.50;99.90
7214;DHT22;3648;50.614;13.830;2023-05-20T02:58:13;10.50;99.90
7214;DHT22;3648;50.614;13.830;2023-05-20T03:00:40;10.50;99.90
7214;DHT22;3648;50.614;13.830;2023-05-20T03:03:08;10.50;99.90
7214;DHT22;3648;50.614;13.830;2023-05-20T03:05:35;10.50;99.90
7214;DHT22;3648;50.614;13.830;2023-05-20T03:08:07;10.50;99.90
7214;DHT22;3648;50.614;13.830;2023-05-20T03:10:35;10.50;99.90
7214;DHT22;3648;50.614;13.830;2023-05-20T03:13:03;10.50;99.90
7214;DHT22;3648;50.614;13.830;2023-05-20T03:15:33;10.50;99.90
7214;DHT22;3648;50.614;13.830;2023-05-20T03:18:00;10.50;99.90
7214;DHT22;3648;50.614;13.830;2023-05-20T03:20:27;10.50;99.90
7214;DHT22;3648;50.614;13.830;2023-05-20T03:22:54;10.50;99.90
7214;DHT22;3648;50.614;13.830;2023-05-20T03:25:23;10.50;99.90
7214;DHT22;3648;50.614;13.830;2023-05-20T03:27:50;10.50;99.90
7214;DHT22;3648;50.614;13.830;2023-05-20T03:30:17;10.50;99.90
7214;DHT22;3648;50.614;13.830;2023-05-20T03:32:44;10.50;99.90
7214;DHT22;3648;50.614;13.830;2023-05-20T03:35:11;10.50;99.90
7214;DHT22;3648;50.614;13.830;2023-05-20T03:37:38;10.50;99.90
7214;DHT22;3648;50.614;13.830;2023-05-20T03:40:07;10.50;99.90
7214;DHT22;3648;50.614;13.830;2023-05-20T03:42:36;10.60;99.90
7214;DHT22;3648;50.614;13.830;2023-05-20T03:45:04;10.60;99.90
7214;DHT22;3648;50.614;13.830;2023-05-20T03:47:31;10.60;99.90
7214;DHT22;3648;50.614;13.830;2023-05-20T03:49:58;10.60;99.90
7214;DHT22;3648;50.614;13.830;2023-05-20T03:52:25;10.60;99.90
7214;DHT22;3648;50.614;13.830;2023-05-20T03:54:52;10.60;99.90
7214;DHT22;3648;50.614;13.830;2023-05-20T03:57:19;10.60;99.90
7214;DHT22;3648;50.614;13.830;2023-05-20T03:59:47;10.70;99.90
7214;DHT22;3648;50.614;13.830;2023-05-20T04:02:14;10.60;99.90
7214;DHT22;3648;50.614;13.830;2023-05-20T04:04:41;10.60;99.90
7214;DHT22;3648;50.614;13.830;2023-05-20T04:07:08;10.60;99.90
7214;DHT22;3648;50.614;13.830;2023-05-20T04:09:36;10.60;99.90
7214;DHT22;3648;50.614;13.830;2023-05-20T04:12:03;10.70;99.90
7214;DHT22;3648;50.614;13.830;2023-05-20T04:14:30;10.70;99.90
7214;DHT22;3648;50.614;13.830;2023-05-20T04:17:02;10.70;99.90
7214;DHT22;3648;50.614;13.830;2023-05-20T04:19:30;10.60;99.90
7214;DHT22;3648;50.614;13.830;2023-05-20T04:21:57;10.70;99.90
7214;DHT22;3648;50.614;13.830;2023-05-20T04:24:24;10.60;99.90
7214;DHT22;3648;50.614;13.830;2023-05-20T04:26:52;10.60;99.90
7214;DHT22;3648;50.614;13.830;2023-05-20T04:29:19;10.60;99.90
7214;DHT22;3648;50.614;13.830;2023-05-20T04:31:47;10.60;99.90
7214;DHT22;3648;50.614;13.830;2023-05-20T04:34:15;10.60;99.90
7214;DHT22;3648;50.614;13.830;2023-05-20T04:36:44;10.60;99.90
7214;DHT22;3648;50.614;13.830;2023-05-20T04:39:11;10.60;99.90
7214;DHT22;3648;50.614;13.830;2023-05-20T04:41:40;10.50;99.90
7214;DHT22;3648;50.614;13.830;2023-05-20T04:44:07;10.50;99.90
7214;DHT22;3648;50.614;13.830;2023-05-20T04:46:34;10.40;99.90
7214;DHT22;3648;50.614;13.830;2023-05-20T04:49:01;10.50;99.90
7214;DHT22;3648;50.614;13.830;2023-05-20T04:51:30;10.60;99.90
7214;DHT22;3648;50.614;13.830;2023-05-20T04:53:58;10.60;99.90
7214;DHT22;3648;50.614;13.830;2023-05-20T04:56:25;10.70;99.90
7214;DHT22;3648;50.614;13.830;2023-05-20T04:58:52;10.70;99.90
7214;DHT22;3648;50.614;13.830;2023-05-20T05:01:20;10.70;99.90
7214;DHT22;3648;50.614;13.830;2023-05-20T05:03:47;10.70;99.90
7214;DHT22;3648;50.614;13.830;2023-05-20T05:06:14;10.80;99.90
7214;DHT22;3648;50.614;13.830;2023-05-20T05:08:43;10.90;99.90
7214;DHT22;3648;50.614;13.830;2023-05-20T05:11:10;11.00;99.90
7214;DHT22;3648;50.614;13.830;2023-05-20T05:13:37;11.00;99.90
7214;DHT22;3648;50.614;13.830;2023-05-20T05:16:04;11.00;99.90
7214;DHT22;3648;50.614;13.830;2023-05-20T05:18:31;11.10;99.90
7214;DHT22;3648;50.614;13.830;2023-05-20T05:21:00;11.10;99.90
7214;DHT22;3648;50.614;13.830;2023-05-20T05:23:27;11.20;99.90
7214;DHT22;3648;50.614;13.830;2023-05-20T05:25:55;11.20;99.90
7214;DHT22;3648;50.614;13.830;2023-05-20T05:28:22;11.30;99.90
7214;DHT22;3648;50.614;13.830;2023-05-20T05:30:50;11.40;99.90
7214;DHT22;3648;50.614;13.830;2023-05-20T05:33:17;11.50;99.90
7214;DHT22;3648;50.614;13.830;2023-05-20T05:35:44;11.60;99.90
7214;DHT22;3648;50.614;13.830;2023-05-20T05:38:11;11.70;99.90
7214;DHT22;3648;50.614;13.830;2023-05-20T05:40:37;11.90;99.90
7214;DHT22;3648;50.614;13.830;2023-05-20T05:43:06;11.90;99.90
7214;DHT22;3648;50.614;13.830;2023-05-20T05:45:33;12.10;99.90
7214;DHT22;3648;50.614;13.830;2023-05-20T05:48:00;12.40;99.90
7214;DHT22;3648;50.614;13.830;2023-05-20T05:50:27;12.60;99.90
7214;DHT22;3648;50.614;13.830;2023-05-20T05:52:54;12.80;99.90
7214;DHT22;3648;50.614;13.830;2023-05-20T05:55:21;12.90;99.90
7214;DHT22;3648;50.614;13.830;2023-05-20T05:57:48;13.00;99.90
7214;DHT22;3648;50.614;13.830;2023-05-20T06:00:17;13.10;99.90
7214;DHT22;3648;50.614;13.830;2023-05-20T06:02:44;13.20;99.90
7214;DHT22;3648;50.614;13.830;2023-05-20T06:05:12;13.10;99.90
7214;DHT22;3648;50.614;13.830;2023-05-20T06:07:39;13.20;99.90
7214;DHT22;3648;50.614;13.830;2023-05-20T06:10:06;13.20;99.90
7214;DHT22;3648;50.614;13.830;2023-05-20T06:12:33;13.20;99.90
7214;DHT22;3648;50.614;13.830;2023-05-20T06:15:00;13.30;99.90
7214;DHT22;3648;50.614;13.830;2023-05-20T06:17:29;13.50;99.90
7214;DHT22;3648;50.614;13.830;2023-05-20T06:19:56;13.60;99.90
7214;DHT22;3648;50.614;13.830;2023-05-20T06:22:23;13.70;99.90
7214;DHT22;3648;50.614;13.830;2023-05-20T06:24:56;13.80;99.90
7214;DHT22;3648;50.614;13.830;2023-05-20T06:27:25;13.90;99.90
7214;DHT22;3648;50.614;13.830;2023-05-20T06:29:52;13.90;99.90
7214;DHT22;3648;50.614;13.830;2023-05-20T06:32:19;14.00;99.90
7214;DHT22;3648;50.614;13.830;2023-05-20T06:34:48;14.10;99.90
7214;DHT22;3648;50.614;13.830;2023-05-20T06:37:15;14.10;99.90
7214;DHT22;3648;50.614;13.830;2023-05-20T06:39:42;14.30;99.90
7214;DHT22;3648;50.614;13.830;2023-05-20T06:42:09;14.50;99.90
7214;DHT22;3648;50.614;13.830;2023-05-20T06:44:36;14.60;99.90
7214;DHT22;3648;50.614;13.830;2023-05-20T06:47:04;14.60;99.90
7214;DHT22;3648;50.614;13.830;2023-05-20T06:49:31;14.70;99.90
7214;DHT22;3648;50.614;13.830;2023-05-20T06:52:00;14.70;99.90
7214;DHT22;3648;50.614;13.830;2023-05-20T06:54:27;14.70;99.90
7214;DHT22;3648;50.614;13.830;2023-05-20T06:56:54;14.70;99.90
7214;DHT22;3648;50.614;13.830;2023-05-20T06:59:21;14.80;99.90
7214;DHT22;3648;50.614;13.830;2023-05-20T07:01:48;15.00;99.90
7214;DHT22;3648;50.614;13.830;2023-05-20T07:04:14;15.00;99.90
7214;DHT22;3648;50.614;13.830;2023-05-20T07:06:41;15.20;99.90
7214;DHT22;3648;50.614;13.830;2023-05-20T07:09:10;15.30;99.90
7214;DHT22;3648;50.614;13.830;2023-05-20T07:11:37;15.40;99.90
7214;DHT22;3648;50.614;13.830;2023-05-20T07:14:04;15.60;99.90
7214;DHT22;3648;50.614;13.830;2023-05-20T07:16:30;15.70;99.90
7214;DHT22;3648;50.614;13.830;2023-05-20T07:18:59;15.80;99.90
7214;DHT22;3648;50.614;13.830;2023-05-20T07:21:26;15.90;99.90
7214;DHT22;3648;50.614;13.830;2023-05-20T07:23:53;16.00;99.90
7214;DHT22;3648;50.614;13.830;2023-05-20T07:26:21;16.00;99.90
7214;DHT22;3648;50.614;13.830;2023-05-20T07:28:48;16.10;99.90
7214;DHT22;3648;50.614;13.830;2023-05-20T07:31:16;16.20;99.90
7214;DHT22;3648;50.614;13.830;2023-05-20T07:33:43;16.30;99.90
7214;DHT22;3648;50.614;13.830;2023-05-20T07:36:10;16.30;99.90
7214;DHT22;3648;50.614;13.830;2023-05-20T07:38:37;16.30;99.90
7214;DHT22;3648;50.614;13.830;2023-05-20T07:41:04;16.30;99.90
7214;DHT22;3648;50.614;13.830;2023-05-20T07:43:33;16.20;99.90
7214;DHT22;3648;50.614;13.830;2023-05-20T07:46:00;16.30;99.90
7214;DHT22;3648;50.614;13.830;2023-05-20T07:48:27;16.40;99.90
7214;DHT22;3648;50.614;13.830;2023-05-20T07:50:54;16.50;99.90
7214;DHT22;3648;50.614;13.830;2023-05-20T07:53:21;16.50;99.90
7214;DHT22;3648;50.614;13.830;2023-05-20T07:55:48;16.70;99.90
7214;DHT22;3648;50.614;13.830;2023-05-20T07:58:15;16.80;99.90
7214;DHT22;3648;50.614;13.830;2023-05-20T08:00:44;16.80;99.90
7214;DHT22;3648;50.614;13.830;2023-05-20T08:03:11;16.90;99.90
7214;DHT22;3648;50.614;13.830;2023-05-20T08:05:40;16.90;99.90
7214;DHT22;3648;50.614;13.830;2023-05-20T08:08:06;17.10;99.90
7214;DHT22;3648;50.614;13.830;2023-05-20T08:10:35;17.20;99.90
7214;DHT22;3648;50.614;13.830;2023-05-20T08:13:02;17.30;99.90
7214;DHT22;3648;50.614;13.830;2023-05-20T08:15:28;17.40;99.90
7214;DHT22;3648;50.614;13.830;2023-05-20T08:17:57;17.50;99.90
7214;DHT22;3648;50.614;13.830;2023-05-20T08:20:24;17.70;99.90
7214;DHT22;3648;50.614;13.830;2023-05-20T08:22:52;17.80;99.90
7214;DHT22;3648;50.614;13.830;2023-05-20T08:25:19;17.90;99.90
7214;DHT22;3648;50.614;13.830;2023-05-20T08:27:48;18.00;99.90
7214;DHT22;3648;50.614;13.830;2023-05-20T08:30:15;18.00;99.90
7214;DHT22;3648;50.614;13.830;2023-05-20T08:32:42;18.00;99.90
7214;DHT22;3648;50.614;13.830;2023-05-20T08:35:10;18.10;99.90
7214;DHT22;3648;50.614;13.830;2023-05-20T08:37:38;18.20;99.90
7214;DHT22;3648;50.614;13.830;2023-05-20T08:40:06;18.30;99.90
7214;DHT22;3648;50.614;13.830;2023-05-20T08:42:34;18.40;99.90
7214;DHT22;3648;50.614;13.830;2023-05-20T08:45:02;18.60;99.90
7214;DHT22;3648;50.614;13.830;2023-05-20T08:47:31;18.70;99.90
7214;DHT22;3648;50.614;13.830;2023-05-20T08:49:58;18.70;99.90
7214;DHT22;3648;50.614;13.830;2023-05-20T08:52:27;18.80;99.90
7214;DHT22;3648;50.614;13.830;2023-05-20T08:54:57;18.80;99.90
7214;DHT22;3648;50.614;13.830;2023-05-20T08:57:24;18.80;99.90
7214;DHT22;3648;50.614;13.830;2023-05-20T08:59:52;19.00;99.90
7214;DHT22;3648;50.614;13.830;2023-05-20T09:02:19;19.10;99.90
7214;DHT22;3648;50.614;13.830;2023-05-20T09:04:47;19.20;99.90
7214;DHT22;3648;50.614;13.830;2023-05-20T09:07:14;19.30;99.90
7214;DHT22;3648;50.614;13.830;2023-05-20T09:09:53;19.60;99.90
7214;DHT22;3648;50.614;13.830;2023-05-20T09:12:20;19.90;99.90
7214;DHT22;3648;50.614;13.830;2023-05-20T09:14:47;19.80;99.90
7214;DHT22;3648;50.614;13.830;2023-05-20T09:17:14;19.80;99.90
7214;DHT22;3648;50.614;13.830;2023-05-20T09:19:42;20.00;99.90
7214;DHT22;3648;50.614;13.830;2023-05-20T09:22:09;20.00;99.90
7214;DHT22;3648;50.614;13.830;2023-05-20T09:24:36;20.10;99.90
7214;DHT22;3648;50.614;13.830;2023-05-20T09:27:05;20.30;99.90
7214;DHT22;3648;50.614;13.830;2023-05-20T09:29:32;20.30;99.90
7214;DHT22;3648;50.614;13.830;2023-05-20T09:32:01;20.40;99.90
7214;DHT22;3648;50.614;13.830;2023-05-20T09:34:28;20.60;99.90
7214;DHT22;3648;50.614;13.830;2023-05-20T09:36:57;20.60;99.90
7214;DHT22;3648;50.614;13.830;2023-05-20T09:39:29;20.80;99.90
7214;DHT22;3648;50.614;13.830;2023-05-20T09:42:01;20.90;99.90
7214;DHT22;3648;50.614;13.830;2023-05-20T09:44:34;21.20;99.90
7214;DHT22;3648;50.614;13.830;2023-05-20T09:47:01;21.30;99.90
7214;DHT22;3648;50.614;13.830;2023-05-20T09:49:30;21.40;99.90
7214;DHT22;3648;50.614;13.830;2023-05-20T09:51:59;21.40;99.90
7214;DHT22;3648;50.614;13.830;2023-05-20T09:54:28;21.40;99.90
7214;DHT22;3648;50.614;13.830;2023-05-20T09:56:58;21.30;99.90
7214;DHT22;3648;50.614;13.830;2023-05-20T09:59:26;21.30;99.90
7214;DHT22;3648;50.614;13.830;2023-05-20T10:01:55;21.40;99.90
7214;DHT22;3648;50.614;13.830;2023-05-20T10:04:23;21.40;99.90
7214;DHT22;3648;50.614;13.830;2023-05-20T10:07:08;21.60;99.90
7214;DHT22;3648;50.614;13.830;2023-05-20T10:09:47;21.50;99.90
7214;DHT22;3648;50.614;13.830;2023-05-20T10:12:24;21.60;99.90
7214;DHT22;3648;50.614;13.830;2023-05-20T10:14:59;21.70;99.90
7214;DHT22;3648;50.614;13.830;2023-05-20T10:17:38;22.00;99.90
7214;DHT22;3648;50.614;13.830;2023-05-20T10:20:07;21.90;99.90
7214;DHT22;3648;50.614;13.830;2023-05-20T10:22:38;22.00;99.90
7214;DHT22;3648;50.614;13.830;2023-05-20T10:25:11;22.20;99.90
7214;DHT22;3648;50.614;13.830;2023-05-20T10:27:44;22.00;99.90
7214;DHT22;3648;50.614;13.830;2023-05-20T10:30:15;21.90;99.90
7214;DHT22;3648;50.614;13.830;2023-05-20T10:32:52;21.80;99.90
7214;DHT22;3648;50.614;13.830;2023-05-20T10:35:23;21.60;99.90
7214;DHT22;3648;50.614;13.830;2023-05-20T10:37:52;21.50;99.90
7214;DHT22;3648;50.614;13.830;2023-05-20T10:40:20;21.80;99.90
7214;DHT22;3648;50.614;13.830;2023-05-20T10:42:47;22.00;99.90
7214;DHT22;3648;50.614;13.830;2023-05-20T10:45:32;22.20;99.90
7214;DHT22;3648;50.614;13.830;2023-05-20T10:48:03;22.40;99.90
7214;DHT22;3648;50.614;13.830;2023-05-20T10:50:34;22.30;99.90
7214;DHT22;3648;50.614;13.830;2023-05-20T10:53:04;22.40;99.90
7214;DHT22;3648;50.614;13.830;2023-05-20T10:55:36;22.50;99.90
7214;DHT22;3648;50.614;13.830;2023-05-20T10:58:04;22.60;99.90
7214;DHT22;3648;50.614;13.830;2023-05-20T11:00:34;22.70;99.90
7214;DHT22;3648;50.614;13.830;2023-05-20T11:03:03;22.80;99.90
7214;DHT22;3648;50.614;13.830;2023-05-20T11:05:31;22.70;99.90
7214;DHT22;3648;50.614;13.830;2023-05-20T11:08:02;22.80;99.90
7214;DHT22;3648;50.614;13.830;2023-05-20T11:10:29;22.90;99.90
7214;DHT22;3648;50.614;13.830;2023-05-20T11:12:56;23.00;99.90
7214;DHT22;3648;50.614;13.830;2023-05-20T11:15:23;23.10;99.90
7214;DHT22;3648;50.614;13.830;2023-05-20T11:17:52;23.30;99.90
7214;DHT22;3648;50.614;13.830;2023-05-20T11:20:21;23.20;99.90
7214;DHT22;3648;50.614;13.830;2023-05-20T11:22:49;23.30;99.90
7214;DHT22;3648;50.614;13.830;2023-05-20T11:25:16;23.20;99.90
7214;DHT22;3648;50.614;13.830;2023-05-20T11:27:44;23.20;99.90
7214;DHT22;3648;50.614;13.830;2023-05-20T11:30:12;23.40;99.90
7214;DHT22;3648;50.614;13.830;2023-05-20T11:32:41;23.20;99.90
7214;DHT22;3648;50.614;13.830;2023-05-20T11:35:21;23.20;99.90
7214;DHT22;3648;50.614;13.830;2023-05-20T11:37:54;23.20;99.90
7214;DHT22;3648;50.614;13.830;2023-05-20T11:40:24;23.10;99.90
7214;DHT22;3648;50.614;13.830;2023-05-20T11:42:53;23.20;99.90
7214;DHT22;3648;50.614;13.830;2023-05-20T11:45:20;23.20;99.90
7214;DHT22;3648;50.614;13.830;2023-05-20T11:47:58;23.30;99.90
7214;DHT22;3648;50.614;13.830;2023-05-20T11:50:27;23.40;99.90
7214;DHT22;3648;50.614;13.830;2023-05-20T11:52:59;23.30;99.90
7214;DHT22;3648;50.614;13.830;2023-05-20T11:55:28;23.70;99.90
7214;DHT22;3648;50.614;13.830;2023-05-20T11:57:57;23.70;99.90
7214;DHT22;3648;50.614;13.830;2023-05-20T12:00:24;23.60;99.90
7214;DHT22;3648;50.614;13.830;2023-05-20T12:02:52;23.60;99.90
7214;DHT22;3648;50.614;13.830;2023-05-20T12:05:18;23.80;99.90
7214;DHT22;3648;50.614;13.830;2023-05-20T12:07:47;23.90;99.90
7214;DHT22;3648;50.614;13.830;2023-05-20T12:10:14;23.80;99.90
7214;DHT22;3648;50.614;13.830;2023-05-20T12:12:41;23.90;99.90
7214;DHT22;3648;50.614;13.830;2023-05-20T12:15:11;24.00;99.90
7214;DHT22;3648;50.614;13.830;2023-05-20T12:17:46;23.70;99.90
7214;DHT22;3648;50.614;13.830;2023-05-20T12:20:14;23.70;99.90
7214;DHT22;3648;50.614;13.830;2023-05-20T12:22:42;23.70;99.90
7214;DHT22;3648;50.614;13.830;2023-05-20T12:25:13;23.70;99.90
7214;DHT22;3648;50.614;13.830;2023-05-20T12:27:41;23.90;99.90
7214;DHT22;3648;50.614;13.830;2023-05-20T12:30:14;24.00;99.90
7214;DHT22;3648;50.614;13.830;2023-05-20T12:32:42;24.00;99.90
7214;DHT22;3648;50.614;13.830;2023-05-20T12:35:09;23.90;99.90
7214;DHT22;3648;50.614;13.830;2023-05-20T12:37:36;23.80;99.90
7214;DHT22;3648;50.614;13.830;2023-05-20T12:40:05;23.80;99.90
7214;DHT22;3648;50.614;13.830;2023-05-20T12:42:34;23.70;99.90
7214;DHT22;3648;50.614;13.830;2023-05-20T12:45:01;23.70;99.90
7214;DHT22;3648;50.614;13.830;2023-05-20T12:47:29;23.70;99.90
7214;DHT22;3648;50.614;13.830;2023-05-20T12:49:56;23.80;99.90
7214;DHT22;3648;50.614;13.830;2023-05-20T12:52:23;23.80;99.90
7214;DHT22;3648;50.614;13.830;2023-05-20T12:54:50;23.70;99.90
7214;DHT22;3648;50.614;13.830;2023-05-20T12:57:17;23.50;99.90
7214;DHT22;3648;50.614;13.830;2023-05-20T12:59:45;23.40;99.90
7214;DHT22;3648;50.614;13.830;2023-05-20T13:02:12;23.40;99.90
7214;DHT22;3648;50.614;13.830;2023-05-20T13:04:39;23.40;99.90
7214;DHT22;3648;50.614;13.830;2023-05-20T13:07:06;23.40;99.90
7214;DHT22;3648;50.614;13.830;2023-05-20T13:09:33;23.60;99.90
7214;DHT22;3648;50.614;13.830;2023-05-20T13:12:00;23.70;99.90
7214;DHT22;3648;50.614;13.830;2023-05-20T13:14:28;23.80;99.90
7214;DHT22;3648;50.614;13.830;2023-05-20T13:16:56;23.80;99.90
7214;DHT22;3648;50.614;13.830;2023-05-20T13:19:23;23.90;99.90
7214;DHT22;3648;50.614;13.830;2023-05-20T13:21:50;24.10;99.90
7214;DHT22;3648;50.614;13.830;2023-05-20T13:24:18;24.10;99.90
7214;DHT22;3648;50.614;13.830;2023-05-20T13:26:46;24.20;99.90
7214;DHT22;3648;50.614;13.830;2023-05-20T13:29:13;24.20;99.90
7214;DHT22;3648;50.614;13.830;2023-05-20T13:31:41;24.00;99.90
7214;DHT22;3648;50.614;13.830;2023-05-20T13:34:09;23.80;99.90
7214;DHT22;3648;50.614;13.830;2023-05-20T13:36:36;23.80;99.90
7214;DHT22;3648;50.614;13.830;2023-05-20T13:39:03;23.80;99.90
7214;DHT22;3648;50.614;13.830;2023-05-20T13:41:31;23.70;99.90
7214;DHT22;3648;50.614;13.830;2023-05-20T13:43:58;23.50;99.90
7214;DHT22;3648;50.614;13.830;2023-05-20T13:46:25;23.40;99.90
7214;DHT22;3648;50.614;13.830;2023-05-20T13:48:52;23.40;99.90
7214;DHT22;3648;50.614;13.830;2023-05-20T13:51:20;23.40;99.90
7214;DHT22;3648;50.614;13.830;2023-05-20T13:53:47;23.40;99.90
7214;DHT22;3648;50.614;13.830;2023-05-20T13:56:14;23.50;99.90
7214;DHT22;3648;50.614;13.830;2023-05-20T13:58:41;23.60;99.90
7214;DHT22;3648;50.614;13.830;2023-05-20T14:01:08;23.70;99.90
7214;DHT22;3648;50.614;13.830;2023-05-20T14:03:37;23.70;99.90
7214;DHT22;3648;50.614;13.830;2023-05-20T14:06:05;23.80;99.90
7214;DHT22;3648;50.614;13.830;2023-05-20T14:08:33;23.90;99.90
7214;DHT22;3648;50.614;13.830;2023-05-20T14:11:00;24.00;99.90
7214;DHT22;3648;50.614;13.830;2023-05-20T14:13:27;24.00;99.90
7214;DHT22;3648;50.614;13.830;2023-05-20T14:15:54;23.90;99.90
7214;DHT22;3648;50.614;13.830;2023-05-20T14:18:21;23.70;99.90
7214;DHT22;3648;50.614;13.830;2023-05-20T14:20:48;23.70;99.90
7214;DHT22;3648;50.614;13.830;2023-05-20T14:23:15;23.70;99.90
7214;DHT22;3648;50.614;13.830;2023-05-20T14:25:43;23.70;99.90
7214;DHT22;3648;50.614;13.830;2023-05-20T14:28:10;23.60;99.90
7214;DHT22;3648;50.614;13.830;2023-05-20T14:30:37;23.50;99.90
7214;DHT22;3648;50.614;13.830;2023-05-20T14:33:04;23.40;99.90
7214;DHT22;3648;50.614;13.830;2023-05-20T14:35:31;23.30;99.90
7214;DHT22;3648;50.614;13.830;2023-05-20T14:37:58;23.30;99.90
7214;DHT22;3648;50.614;13.830;2023-05-20T14:40:25;23.40;99.90
7214;DHT22;3648;50.614;13.830;2023-05-20T14:42:54;23.40;99.90
7214;DHT22;3648;50.614;13.830;2023-05-20T14:45:21;23.40;99.90
7214;DHT22;3648;50.614;13.830;2023-05-20T14:47:48;23.30;99.90
7214;DHT22;3648;50.614;13.830;2023-05-20T14:50:15;23.30;99.90
7214;DHT22;3648;50.614;13.830;2023-05-20T14:52:42;23.30;99.90
7214;DHT22;3648;50.614;13.830;2023-05-20T14:55:09;23.20;99.90
7214;DHT22;3648;50.614;13.830;2023-05-20T14:57:36;23.10;99.90
7214;DHT22;3648;50.614;13.830;2023-05-20T15:00:06;23.20;99.90
7214;DHT22;3648;50.614;13.830;2023-05-20T15:02:33;23.20;99.90
7214;DHT22;3648;50.614;13.830;2023-05-20T15:05:00;23.30;99.90
7214;DHT22;3648;50.614;13.830;2023-05-20T15:07:27;23.30;99.90
7214;DHT22;3648;50.614;13.830;2023-05-20T15:09:54;23.40;99.90
7214;DHT22;3648;50.614;13.830;2023-05-20T15:12:20;23.40;99.90
7214;DHT22;3648;50.614;13.830;2023-05-20T15:14:47;23.60;99.90
7214;DHT22;3648;50.614;13.830;2023-05-20T15:17:16;23.80;99.90
7214;DHT22;3648;50.614;13.830;2023-05-20T15:19:43;23.80;99.90
7214;DHT22;3648;50.614;13.830;2023-05-20T15:22:10;23.80;99.90
7214;DHT22;3648;50.614;13.830;2023-05-20T15:24:37;24.10;99.90
7214;DHT22;3648;50.614;13.830;2023-05-20T15:27:04;24.10;99.90
7214;DHT22;3648;50.614;13.830;2023-05-20T15:29:31;23.80;99.90
7214;DHT22;3648;50.614;13.830;2023-05-20T15:31:58;23.80;99.90
7214;DHT22;3648;50.614;13.830;2023-05-20T15:34:26;23.60;99.90
7214;DHT22;3648;50.614;13.830;2023-05-20T15:36:53;23.50;99.90
7214;DHT22;3648;50.614;13.830;2023-05-20T15:39:20;23.40;99.90
7214;DHT22;3648;50.614;13.830;2023-05-20T15:41:47;23.40;99.90
7214;DHT22;3648;50.614;13.830;2023-05-20T15:44:16;23.20;99.90
7214;DHT22;3648;50.614;13.830;2023-05-20T15:46:43;23.00;99.90
7214;DHT22;3648;50.614;13.830;2023-05-20T15:49:10;23.00;99.90